sensor_id;sensor_type;location;lat;lon;timestamp;pressure;altitude;pressure_sealevel;temperature;humidity
76553;BME280;65395;53.168;18.156;2023-09-19T00:00:41;100107.83;;;18.70;73.45
76553;BME280;65395;53.168;18.156;2023-09-19T00:03:29;100107.07;;;18.66;73.57
76553;BME280;65395;53.168;18.156;2023-09-19T00:05:58;100111.80;;;18.66;73.42
76553;BME280;65395;53.168;18.156;2023-09-19T00:08:26;100111.13;;;18.67;73.55
76553;BME280;65395;53.168;18.156;2023-09-19T00:10:54;100111.94;;;18.70;73.67
76553;BME280;65395;53.168;18.156;2023-09-19T00:13:21;100114.02;;;18.70;73.60
76553;BME280;65395;53.168;18.156;2023-09-19T00:15:48;100109.02;;;18.69;73.68
76553;BME280;65395;53.168;18.156;2023-09-19T00:18:15;100111.56;;;18.70;73.63
76553;BME280;65395;53.168;18.156;2023-09-19T00:20:42;100111.11;;;18.69;73.88
76553;BME280;65395;53.168;18.156;2023-09-19T00:23:09;100114.98;;;18.69;73.72
76553;BME280;65395;53.168;18.156;2023-09-19T00:25:36;100117.02;;;18.67;73.61
76553;BME280;65395;53.168;18.156;2023-09-19T00:28:05;100123.73;;;18.67;73.88
76553;BME280;65395;53.168;18.156;2023-09-19T00:30:34;100122.67;;;18.68;73.88
76553;BME280;65395;53.168;18.156;2023-09-19T00:33:01;100123.95;;;18.71;73.86
76553;BME280;65395;53.168;18.156;2023-09-19T00:35:32;100124.84;;;18.73;74.04
76553;BME280;65395;53.168;18.156;2023-09-19T00:37:59;100128.50;;;18.77;73.81
76553;BME280;65395;53.168;18.156;2023-09-19T00:40:26;100125.95;;;18.79;73.90
76553;BME280;65395;53.168;18.156;2023-09-19T00:42:57;100125.98;;;18.81;74.01
76553;BME280;65395;53.168;18.156;2023-09-19T00:45:26;100122.80;;;18.82;74.16
76553;BME280;65395;53.168;18.156;2023-09-19T00:47:55;100122.32;;;18.81;74.03
76553;BME280;65395;53.168;18.156;2023-09-19T00:50:24;100124.40;;;18.79;74.20
76553;BME280;65395;53.168;18.156;2023-09-19T00:52:54;100119.40;;;18.76;74.42
76553;BME280;65395;53.168;18.156;2023-09-19T00:55:23;100116.67;;;18.73;74.33
76553;BME280;65395;53.168;18.156;2023-09-19T00:57:51;100113.66;;;18.71;74.31
76553;BME280;65395;53.168;18.156;2023-09-19T01:00:19;100108.09;;;18.71;74.51
76553;BME280;65395;53.168;18.156;2023-09-19T01:02:47;100105.23;;;18.73;74.86
76553;BME280;65395;53.168;18.156;2023-09-19T01:05:14;100105.57;;;18.79;74.64
76553;BME280;65395;53.168;18.156;2023-09-19T01:07:42;100098.53;;;18.81;74.74
76553;BME280;65395;53.168;18.156;2023-09-19T01:10:13;100093.85;;;18.84;75.23
76553;BME280;65395;53.168;18.156;2023-09-19T01:12:53;100092.75;;;18.95;75.04
76553;BME280;65395;53.168;18.156;2023-09-19T01:15:38;100095.33;;;19.03;74.86
76553;BME280;65395;53.168;18.156;2023-09-19T01:18:29;100103.73;;;19.11;75.04
76553;BME280;65395;53.168;18.156;2023-09-19T01:21:22;100099.08;;;19.21;74.84
76553;BME280;65395;53.168;18.156;2023-09-19T01:30:08;100092.72;;;19.49;73.92
76553;BME280;65395;53.168;18.156;2023-09-19T01:32:36;100084.33;;;19.53;73.84
76553;BME280;65395;53.168;18.156;2023-09-19T01:35:04;100077.06;;;19.58;73.65
76553;BME280;65395;53.168;18.156;2023-09-19T01:37:31;100071.02;;;19.63;73.54
76553;BME280;65395;53.168;18.156;2023-09-19T01:40:03;100066.70;;;19.65;73.37
76553;BME280;65395;53.168;18.156;2023-09-19T01:42:41;100067.50;;;19.68;73.31
76553;BME280;65395;53.168;18.156;2023-09-19T01:45:16;100058.39;;;19.71;73.10
76553;BME280;65395;53.168;18.156;2023-09-19T01:47:51;100056.42;;;19.72;73.00
76553;BME280;65395;53.168;18.156;2023-09-19T01:50:34;100053.83;;;19.73;72.80
76553;BME280;65395;53.168;18.156;2023-09-19T01:53:15;100053.70;;;19.69;72.82
76553;BME280;65395;53.168;18.156;2023-09-19T01:55:48;100071.88;;;19.73;72.77
76553;BME280;65395;53.168;18.156;2023-09-19T01:58:21;100071.70;;;19.73;72.68
76553;BME280;65395;53.168;18.156;2023-09-19T02:00:54;100074.37;;;19.72;72.82
76553;BME280;65395;53.168;18.156;2023-09-19T02:03:22;100076.52;;;19.72;72.72
76553;BME280;65395;53.168;18.156;2023-09-19T02:05:51;100084.86;;;19.73;72.79
76553;BME280;65395;53.168;18.156;2023-09-19T02:08:22;100076.84;;;19.68;72.99
76553;BME280;65395;53.168;18.156;2023-09-19T02:10:50;100075.96;;;19.71;72.90
76553;BME280;65395;53.168;18.156;2023-09-19T02:13:18;100083.87;;;19.70;73.07
76553;BME280;65395;53.168;18.156;2023-09-19T02:15:46;100086.90;;;19.67;73.14
76553;BME280;65395;53.168;18.156;2023-09-19T02:18:13;100094.96;;;19.65;73.20
76553;BME280;65395;53.168;18.156;2023-09-19T02:20:42;100100.02;;;19.62;73.44
76553;BME280;65395;53.168;18.156;2023-09-19T02:23:10;100090.83;;;19.59;73.56
76553;BME280;65395;53.168;18.156;2023-09-19T02:25:37;100078.48;;;19.57;73.64
76553;BME280;65395;53.168;18.156;2023-09-19T02:28:07;100069.09;;;19.56;73.78
76553;BME280;65395;53.168;18.156;2023-09-19T02:30:35;100075.35;;;19.56;73.86
76553;BME280;65395;53.168;18.156;2023-09-19T02:33:03;100086.61;;;19.53;74.46
76553;BME280;65395;53.168;18.156;2023-09-19T02:35:30;100084.04;;;19.50;74.81
76553;BME280;65395;53.168;18.156;2023-09-19T02:38:02;100086.19;;;19.46;74.78
76553;BME280;65395;53.168;18.156;2023-09-19T02:40:33;100076.02;;;19.41;74.95
76553;BME280;65395;53.168;18.156;2023-09-19T02:43:02;100080.02;;;19.34;75.29
76553;BME280;65395;53.168;18.156;2023-09-19T02:45:29;100080.95;;;19.31;75.43
76553;BME280;65395;53.168;18.156;2023-09-19T02:47:57;100086.10;;;19.29;75.52
76553;BME280;65395;53.168;18.156;2023-09-19T02:50:24;100098.21;;;19.27;75.71
76553;BME280;65395;53.168;18.156;2023-09-19T02:52:51;100097.16;;;19.24;75.85
76553;BME280;65395;53.168;18.156;2023-09-19T02:55:19;100097.58;;;19.18;75.95
76553;BME280;65395;53.168;18.156;2023-09-19T02:57:51;100103.58;;;19.12;76.26
76553;BME280;65395;53.168;18.156;2023-09-19T03:00:19;100113.73;;;19.07;76.70
76553;BME280;65395;53.168;18.156;2023-09-19T03:02:53;100113.72;;;19.02;76.86
76553;BME280;65395;53.168;18.156;2023-09-19T03:05:21;100117.90;;;19.01;77.21
76553;BME280;65395;53.168;18.156;2023-09-19T03:07:50;100111.73;;;18.98;77.71
76553;BME280;65395;53.168;18.156;2023-09-19T03:10:18;100107.66;;;18.93;78.06
76553;BME280;65395;53.168;18.156;2023-09-19T03:12:47;100114.48;;;18.90;78.90
76553;BME280;65395;53.168;18.156;2023-09-19T03:15:14;100118.73;;;18.85;80.32
76553;BME280;65395;53.168;18.156;2023-09-19T03:17:44;100117.11;;;18.76;81.09
76553;BME280;65395;53.168;18.156;2023-09-19T03:20:12;100122.14;;;18.64;81.96
76553;BME280;65395;53.168;18.156;2023-09-19T03:22:40;100123.45;;;18.54;82.36
76553;BME280;65395;53.168;18.156;2023-09-19T03:25:08;100117.14;;;18.47;82.96
76553;BME280;65395;53.168;18.156;2023-09-19T03:27:35;100099.35;;;18.37;82.93
76553;BME280;65395;53.168;18.156;2023-09-19T03:30:03;100107.05;;;18.40;82.95
76553;BME280;65395;53.168;18.156;2023-09-19T03:32:35;100110.02;;;18.37;83.22
76553;BME280;65395;53.168;18.156;2023-09-19T03:35:03;100113.59;;;18.33;83.36
76553;BME280;65395;53.168;18.156;2023-09-19T03:37:32;100111.05;;;18.32;83.30
76553;BME280;65395;53.168;18.156;2023-09-19T03:40:00;100113.31;;;18.34;83.33
76553;BME280;65395;53.168;18.156;2023-09-19T03:42:31;100111.97;;;18.35;83.50
76553;BME280;65395;53.168;18.156;2023-09-19T03:44:58;100112.09;;;18.38;83.55
76553;BME280;65395;53.168;18.156;2023-09-19T03:47:27;100099.64;;;18.40;83.33
76553;BME280;65395;53.168;18.156;2023-09-19T03:49:54;100108.54;;;18.42;83.58
76553;BME280;65395;53.168;18.156;2023-09-19T03:52:21;100104.39;;;18.44;83.56
76553;BME280;65395;53.168;18.156;2023-09-19T03:54:48;100103.09;;;18.47;84.85
76553;BME280;65395;53.168;18.156;2023-09-19T03:57:15;100108.35;;;18.47;84.76
76553;BME280;65395;53.168;18.156;2023-09-19T03:59:47;100108.79;;;18.46;84.70
76553;BME280;65395;53.168;18.156;2023-09-19T04:02:14;100113.13;;;18.45;84.66
76553;BME280;65395;53.168;18.156;2023-09-19T04:04:50;100108.24;;;18.43;84.59
76553;BME280;65395;53.168;18.156;2023-09-19T04:07:18;100113.45;;;18.41;84.48
76553;BME280;65395;53.168;18.156;2023-09-19T04:09:47;100112.44;;;18.39;84.55
76553;BME280;65395;53.168;18.156;2023-09-19T04:12:15;100102.02;;;18.37;84.58
76553;BME280;65395;53.168;18.156;2023-09-19T04:14:43;100105.23;;;18.33;84.46
76553;BME280;65395;53.168;18.156;2023-09-19T04:17:10;100103.55;;;18.29;84.51
76553;BME280;65395;53.168;18.156;2023-09-19T04:19:38;100098.37;;;18.27;84.59
76553;BME280;65395;53.168;18.156;2023-09-19T04:22:05;100101.88;;;18.26;84.63
76553;BME280;65395;53.168;18.156;2023-09-19T04:24:32;100097.71;;;18.25;84.75
76553;BME280;65395;53.168;18.156;2023-09-19T04:27:00;100092.79;;;18.25;84.66
76553;BME280;65395;53.168;18.156;2023-09-19T04:29:27;100080.65;;;18.28;84.79
76553;BME280;65395;53.168;18.156;2023-09-19T04:31:56;100084.25;;;18.33;84.68
76553;BME280;65395;53.168;18.156;2023-09-19T04:34:24;100082.27;;;18.34;84.79
76553;BME280;65395;53.168;18.156;2023-09-19T04:36:51;100088.58;;;18.40;84.81
76553;BME280;65395;53.168;18.156;2023-09-19T04:39:19;100087.60;;;18.41;84.75
76553;BME280;65395;53.168;18.156;2023-09-19T04:41:47;100086.81;;;18.43;84.94
76553;BME280;65395;53.168;18.156;2023-09-19T04:44:14;100100.92;;;18.45;84.71
76553;BME280;65395;53.168;18.156;2023-09-19T04:46:42;100103.70;;;18.46;84.82
76553;BME280;65395;53.168;18.156;2023-09-19T04:49:09;100104.91;;;18.43;84.74
76553;BME280;65395;53.168;18.156;2023-09-19T04:51:36;100112.69;;;18.40;84.94
76553;BME280;65395;53.168;18.156;2023-09-19T04:54:03;100110.88;;;18.34;84.99
76553;BME280;65395;53.168;18.156;2023-09-19T04:56:30;100111.23;;;18.33;85.06
76553;BME280;65395;53.168;18.156;2023-09-19T04:58:59;100105.83;;;18.30;84.95
76553;BME280;65395;53.168;18.156;2023-09-19T05:01:26;100105.96;;;18.25;85.06
76553;BME280;65395;53.168;18.156;2023-09-19T05:03:53;100107.70;;;18.24;85.23
76553;BME280;65395;53.168;18.156;2023-09-19T05:06:21;100101.79;;;18.23;85.23
76553;BME280;65395;53.168;18.156;2023-09-19T05:08:48;100099.80;;;18.22;85.22
76553;BME280;65395;53.168;18.156;2023-09-19T05:11:19;100092.63;;;18.22;85.28
76553;BME280;65395;53.168;18.156;2023-09-19T05:13:49;100088.94;;;18.20;85.29
76553;BME280;65395;53.168;18.156;2023-09-19T05:16:17;100088.86;;;18.20;85.48
76553;BME280;65395;53.168;18.156;2023-09-19T05:18:44;100091.86;;;18.21;85.51
76553;BME280;65395;53.168;18.156;2023-09-19T05:21:11;100089.39;;;18.23;85.55
76553;BME280;65395;53.168;18.156;2023-09-19T05:23:38;100087.80;;;18.28;85.38
76553;BME280;65395;53.168;18.156;2023-09-19T05:26:05;100090.02;;;18.32;85.63
76553;BME280;65395;53.168;18.156;2023-09-19T05:28:32;100100.95;;;18.37;85.73
76553;BME280;65395;53.168;18.156;2023-09-19T05:31:01;100102.70;;;18.40;85.93
76553;BME280;65395;53.168;18.156;2023-09-19T05:33:29;100102.88;;;18.41;85.60
76553;BME280;65395;53.168;18.156;2023-09-19T05:35:58;100102.19;;;18.44;85.57
76553;BME280;65395;53.168;18.156;2023-09-19T05:38:25;100103.72;;;18.48;85.55
76553;BME280;65395;53.168;18.156;2023-09-19T05:40:54;100104.48;;;18.48;85.56
76553;BME280;65395;53.168;18.156;2023-09-19T05:43:20;100116.05;;;18.54;85.40
76553;BME280;65395;53.168;18.156;2023-09-19T05:45:48;100120.22;;;18.57;85.32
76553;BME280;65395;53.168;18.156;2023-09-19T05:48:15;100123.95;;;18.56;85.45
76553;BME280;65395;53.168;18.156;2023-09-19T05:50:43;100120.02;;;18.58;85.38
76553;BME280;65395;53.168;18.156;2023-09-19T05:53:10;100124.95;;;18.57;85.25
76553;BME280;65395;53.168;18.156;2023-09-19T05:55:39;100123.12;;;18.56;85.40
76553;BME280;65395;53.168;18.156;2023-09-19T05:58:06;100121.64;;;18.55;85.09
76553;BME280;65395;53.168;18.156;2023-09-19T06:00:34;100123.99;;;18.55;85.00
76553;BME280;65395;53.168;18.156;2023-09-19T06:03:01;100119.83;;;18.56;85.03
76553;BME280;65395;53.168;18.156;2023-09-19T06:05:28;100112.38;;;18.57;84.80
76553;BME280;65395;53.168;18.156;2023-09-19T06:07:57;100119.52;;;18.56;84.62
76553;BME280;65395;53.168;18.156;2023-09-19T06:10:27;100119.25;;;18.54;84.65
76553;BME280;65395;53.168;18.156;2023-09-19T06:12:55;100122.90;;;18.49;84.44
76553;BME280;65395;53.168;18.156;2023-09-19T06:15:24;100134.86;;;18.45;84.78
76553;BME280;65395;53.168;18.156;2023-09-19T06:17:53;100130.92;;;18.41;84.69
76553;BME280;65395;53.168;18.156;2023-09-19T06:20:49;100132.89;;;18.37;84.69
76553;BME280;65395;53.168;18.156;2023-09-19T06:23:21;100137.85;;;18.33;84.66
76553;BME280;65395;53.168;18.156;2023-09-19T06:26:06;100139.85;;;18.31;84.67
76553;BME280;65395;53.168;18.156;2023-09-19T06:28:34;100140.96;;;18.32;84.75
76553;BME280;65395;53.168;18.156;2023-09-19T06:31:02;100145.84;;;18.33;84.64
76553;BME280;65395;53.168;18.156;2023-09-19T06:33:30;100154.52;;;18.32;84.52
76553;BME280;65395;53.168;18.156;2023-09-19T06:35:58;100153.70;;;18.29;84.60
76553;BME280;65395;53.168;18.156;2023-09-19T06:38:26;100160.06;;;18.27;84.60
76553;BME280;65395;53.168;18.156;2023-09-19T06:40:53;100168.32;;;18.28;84.64
76553;BME280;65395;53.168;18.156;2023-09-19T06:43:20;100171.58;;;18.31;84.74
76553;BME280;65395;53.168;18.156;2023-09-19T06:45:47;100168.14;;;18.31;84.57
76553;BME280;65395;53.168;18.156;2023-09-19T06:48:14;100171.41;;;18.30;84.43
76553;BME280;65395;53.168;18.156;2023-09-19T06:50:42;100171.32;;;18.26;84.68
76553;BME280;65395;53.168;18.156;2023-09-19T06:53:10;100170.48;;;18.23;84.81
76553;BME280;65395;53.168;18.156;2023-09-19T06:55:37;100172.48;;;18.24;84.67
76553;BME280;65395;53.168;18.156;2023-09-19T06:58:04;100175.30;;;18.27;84.68
76553;BME280;65395;53.168;18.156;2023-09-19T07:00:32;100181.09;;;18.34;84.50
76553;BME280;65395;53.168;18.156;2023-09-19T07:03:05;100185.34;;;18.39;84.48
76553;BME280;65395;53.168;18.156;2023-09-19T07:05:39;100187.19;;;18.46;84.24
76553;BME280;65395;53.168;18.156;2023-09-19T07:08:07;100186.27;;;18.53;84.10
76553;BME280;65395;53.168;18.156;2023-09-19T07:10:34;100187.27;;;18.60;84.09
76553;BME280;65395;53.168;18.156;2023-09-19T07:13:03;100191.89;;;18.65;84.04
76553;BME280;65395;53.168;18.156;2023-09-19T07:15:32;100189.75;;;18.73;84.02
76553;BME280;65395;53.168;18.156;2023-09-19T07:18:03;100194.86;;;18.80;83.67
76553;BME280;65395;53.168;18.156;2023-09-19T07:20:30;100189.58;;;18.83;83.45
76553;BME280;65395;53.168;18.156;2023-09-19T07:22:58;100197.12;;;18.89;83.50
76553;BME280;65395;53.168;18.156;2023-09-19T07:25:27;100193.13;;;18.95;83.20
76553;BME280;65395;53.168;18.156;2023-09-19T07:27:56;100194.63;;;19.02;83.04
76553;BME280;65395;53.168;18.156;2023-09-19T07:30:23;100189.83;;;19.11;82.87
76553;BME280;65395;53.168;18.156;2023-09-19T07:32:49;100196.64;;;19.20;82.39
76553;BME280;65395;53.168;18.156;2023-09-19T07:35:16;100194.25;;;19.26;82.07
76553;BME280;65395;53.168;18.156;2023-09-19T07:37:46;100188.77;;;19.31;81.94
76553;BME280;65395;53.168;18.156;2023-09-19T07:40:18;100199.83;;;19.34;81.64
76553;BME280;65395;53.168;18.156;2023-09-19T07:42:46;100201.65;;;19.30;81.67
76553;BME280;65395;53.168;18.156;2023-09-19T07:45:14;100202.08;;;19.29;81.85
76553;BME280;65395;53.168;18.156;2023-09-19T07:47:45;100205.22;;;19.33;81.71
76553;BME280;65395;53.168;18.156;2023-09-19T07:50:13;100207.44;;;19.36;81.39
76553;BME280;65395;53.168;18.156;2023-09-19T07:52:39;100208.40;;;19.38;80.96
76553;BME280;65395;53.168;18.156;2023-09-19T07:55:07;100214.10;;;19.40;80.94
76553;BME280;65395;53.168;18.156;2023-09-19T07:57:37;100217.81;;;19.43;80.71
76553;BME280;65395;53.168;18.156;2023-09-19T08:00:05;100218.41;;;19.38;80.45
76553;BME280;65395;53.168;18.156;2023-09-19T08:02:39;100224.69;;;19.33;80.79
76553;BME280;65395;53.168;18.156;2023-09-19T08:05:07;100230.27;;;19.33;80.88
76553;BME280;65395;53.168;18.156;2023-09-19T08:07:39;100237.73;;;19.28;80.96
76553;BME280;65395;53.168;18.156;2023-09-19T08:10:07;100239.17;;;19.20;80.78
76553;BME280;65395;53.168;18.156;2023-09-19T08:12:34;100240.77;;;19.12;80.97
76553;BME280;65395;53.168;18.156;2023-09-19T08:15:03;100244.43;;;19.00;80.90
76553;BME280;65395;53.168;18.156;2023-09-19T08:17:34;100238.09;;;18.93;81.02
76553;BME280;65395;53.168;18.156;2023-09-19T08:20:01;100237.19;;;18.93;81.10
76553;BME280;65395;53.168;18.156;2023-09-19T08:22:31;100234.77;;;19.01;80.97
76553;BME280;65395;53.168;18.156;2023-09-19T08:24:58;100240.64;;;19.17;81.08
76553;BME280;65395;53.168;18.156;2023-09-19T08:27:26;100240.39;;;19.34;81.01
76553;BME280;65395;53.168;18.156;2023-09-19T08:29:54;100242.29;;;19.49;80.53
76553;BME280;65395;53.168;18.156;2023-09-19T08:32:21;100244.27;;;19.61;80.49
76553;BME280;65395;53.168;18.156;2023-09-19T08:34:50;100247.44;;;19.76;79.98
76553;BME280;65395;53.168;18.156;2023-09-19T08:37:17;100247.41;;;19.88;79.57
76553;BME280;65395;53.168;18.156;2023-09-19T08:39:45;100254.25;;;19.94;79.41
76553;BME280;65395;53.168;18.156;2023-09-19T08:42:12;100254.91;;;19.97;79.25
76553;BME280;65395;53.168;18.156;2023-09-19T08:44:40;100261.34;;;19.97;78.98
76553;BME280;65395;53.168;18.156;2023-09-19T08:47:13;100269.16;;;19.98;79.01
76553;BME280;65395;53.168;18.156;2023-09-19T08:49:53;100273.57;;;19.98;78.45
76553;BME280;65395;53.168;18.156;2023-09-19T08:52:32;100275.92;;;20.01;78.58
76553;BME280;65395;53.168;18.156;2023-09-19T08:55:02;100277.33;;;20.07;78.17
76553;BME280;65395;53.168;18.156;2023-09-19T08:57:34;100281.77;;;20.12;78.56
76553;BME280;65395;53.168;18.156;2023-09-19T09:00:04;100282.08;;;20.24;78.27
76553;BME280;65395;53.168;18.156;2023-09-19T09:02:38;100285.02;;;20.36;77.60
76553;BME280;65395;53.168;18.156;2023-09-19T09:05:09;100281.71;;;20.45;76.71
76553;BME280;65395;53.168;18.156;2023-09-19T09:07:37;100278.55;;;20.53;76.38
76553;BME280;65395;53.168;18.156;2023-09-19T09:10:05;100275.27;;;20.64;75.97
76553;BME280;65395;53.168;18.156;2023-09-19T09:12:35;100272.02;;;20.72;75.88
76553;BME280;65395;53.168;18.156;2023-09-19T09:15:04;100278.08;;;20.83;75.63
76553;BME280;65395;53.168;18.156;2023-09-19T09:17:30;100279.91;;;20.99;75.23
76553;BME280;65395;53.168;18.156;2023-09-19T09:19:58;100278.98;;;21.09;74.78
76553;BME280;65395;53.168;18.156;2023-09-19T09:22:25;100285.03;;;21.21;74.20
76553;BME280;65395;53.168;18.156;2023-09-19T09:24:54;100286.07;;;21.31;73.38
76553;BME280;65395;53.168;18.156;2023-09-19T09:27:24;100290.85;;;21.28;72.17
76553;BME280;65395;53.168;18.156;2023-09-19T09:29:53;100289.99;;;21.08;72.89
76553;BME280;65395;53.168;18.156;2023-09-19T09:32:27;100299.60;;;20.90;72.47
76553;BME280;65395;53.168;18.156;2023-09-19T09:34:57;100302.25;;;20.78;72.49
76553;BME280;65395;53.168;18.156;2023-09-19T09:37:25;100301.26;;;20.78;71.75
76553;BME280;65395;53.168;18.156;2023-09-19T09:39:59;100295.53;;;20.79;71.99
76553;BME280;65395;53.168;18.156;2023-09-19T09:42:45;100294.00;;;20.89;72.12
76553;BME280;65395;53.168;18.156;2023-09-19T09:45:16;100297.03;;;21.03;71.76
76553;BME280;65395;53.168;18.156;2023-09-19T09:47:46;100291.01;;;21.16;71.94
76553;BME280;65395;53.168;18.156;2023-09-19T09:50:32;100291.53;;;21.34;72.07
76553;BME280;65395;53.168;18.156;2023-09-19T09:53:22;100303.24;;;21.52;71.28
76553;BME280;65395;53.168;18.156;2023-09-19T09:56:04;100304.98;;;21.64;69.43
76553;BME280;65395;53.168;18.156;2023-09-19T09:58:34;100306.36;;;21.70;68.68
76553;BME280;65395;53.168;18.156;2023-09-19T10:01:03;100304.27;;;21.68;67.56
76553;BME280;65395;53.168;18.156;2023-09-19T10:03:42;100301.98;;;21.55;68.87
76553;BME280;65395;53.168;18.156;2023-09-19T10:06:15;100296.96;;;21.53;68.47
76553;BME280;65395;53.168;18.156;2023-09-19T10:09:07;100300.09;;;21.52;69.35
76553;BME280;65395;53.168;18.156;2023-09-19T10:11:41;100305.09;;;21.59;68.13
76553;BME280;65395;53.168;18.156;2023-09-19T10:14:11;100305.17;;;21.59;67.68
76553;BME280;65395;53.168;18.156;2023-09-19T10:16:45;100312.52;;;21.65;67.17
76553;BME280;65395;53.168;18.156;2023-09-19T10:19:17;100312.67;;;21.66;67.25
76553;BME280;65395;53.168;18.156;2023-09-19T10:21:50;100319.61;;;21.64;67.67
76553;BME280;65395;53.168;18.156;2023-09-19T10:24:20;100314.05;;;21.58;66.85
76553;BME280;65395;53.168;18.156;2023-09-19T10:26:50;100317.73;;;21.52;67.01
76553;BME280;65395;53.168;18.156;2023-09-19T10:29:18;100328.42;;;21.56;66.44
76553;BME280;65395;53.168;18.156;2023-09-19T10:31:47;100328.45;;;21.57;66.74
76553;BME280;65395;53.168;18.156;2023-09-19T10:34:15;100339.70;;;21.69;66.51
76553;BME280;65395;53.168;18.156;2023-09-19T10:36:45;100343.83;;;21.75;65.13
76553;BME280;65395;53.168;18.156;2023-09-19T10:39:15;100351.55;;;21.67;64.47
76553;BME280;65395;53.168;18.156;2023-09-19T10:41:50;100352.64;;;21.57;64.50
76553;BME280;65395;53.168;18.156;2023-09-19T10:44:24;100354.41;;;21.50;65.01
76553;BME280;65395;53.168;18.156;2023-09-19T10:46:52;100356.29;;;21.53;64.92
76553;BME280;65395;53.168;18.156;2023-09-19T10:49:21;100350.73;;;21.56;64.36
76553;BME280;65395;53.168;18.156;2023-09-19T10:51:52;100342.44;;;21.62;64.47
76553;BME280;65395;53.168;18.156;2023-09-19T10:54:22;100356.63;;;21.68;62.61
76553;BME280;65395;53.168;18.156;2023-09-19T10:56:53;100346.76;;;21.70;62.14
76553;BME280;65395;53.168;18.156;2023-09-19T10:59:24;100347.70;;;21.78;62.08
76553;BME280;65395;53.168;18.156;2023-09-19T11:01:53;100349.05;;;21.87;62.18
76553;BME280;65395;53.168;18.156;2023-09-19T11:04:29;100341.51;;;22.00;62.12
76553;BME280;65395;53.168;18.156;2023-09-19T11:07:10;100331.76;;;22.14;62.21
76553;BME280;65395;53.168;18.156;2023-09-19T11:09:45;100333.80;;;22.28;61.25
76553;BME280;65395;53.168;18.156;2023-09-19T11:26:51;100332.86;;;22.03;59.04
76553;BME280;65395;53.168;18.156;2023-09-19T11:29:28;100340.90;;;22.01;57.80
76553;BME280;65395;53.168;18.156;2023-09-19T11:31:56;100347.45;;;22.03;57.95
76553;BME280;65395;53.168;18.156;2023-09-19T11:34:37;100341.11;;;22.06;58.06
76553;BME280;65395;53.168;18.156;2023-09-19T11:40:06;100346.06;;;21.95;57.11
76553;BME280;65395;53.168;18.156;2023-09-19T11:42:43;100352.09;;;21.99;56.55
76553;BME280;65395;53.168;18.156;2023-09-19T11:47:58;100352.68;;;22.21;56.68
76553;BME280;65395;53.168;18.156;2023-09-19T11:50:26;100350.14;;;22.28;55.26
76553;BME280;65395;53.168;18.156;2023-09-19T11:52:54;100354.89;;;22.35;55.15
76553;BME280;65395;53.168;18.156;2023-09-19T11:55:22;100352.92;;;22.41;55.05
76553;BME280;65395;53.168;18.156;2023-09-19T11:57:55;100365.60;;;22.42;52.82
76553;BME280;65395;53.168;18.156;2023-09-19T12:00:22;100362.12;;;22.38;53.15
76553;BME280;65395;53.168;18.156;2023-09-19T12:02:55;100366.09;;;22.35;53.02
76553;BME280;65395;53.168;18.156;2023-09-19T12:05:30;100374.08;;;22.37;52.73
76553;BME280;65395;53.168;18.156;2023-09-19T12:08:00;100375.67;;;22.35;51.58
76553;BME280;65395;53.168;18.156;2023-09-19T12:10:27;100369.20;;;22.31;52.49
76553;BME280;65395;53.168;18.156;2023-09-19T12:12:54;100372.73;;;22.32;52.91
76553;BME280;65395;53.168;18.156;2023-09-19T12:15:23;100377.55;;;22.38;52.02
76553;BME280;65395;53.168;18.156;2023-09-19T12:17:57;100381.85;;;22.54;49.76
76553;BME280;65395;53.168;18.156;2023-09-19T12:20:24;100382.75;;;22.69;50.41
76553;BME280;65395;53.168;18.156;2023-09-19T12:22:51;100385.39;;;22.95;50.23
76553;BME280;65395;53.168;18.156;2023-09-19T12:25:18;100392.04;;;23.13;48.47
76553;BME280;65395;53.168;18.156;2023-09-19T12:27:49;100399.15;;;23.19;48.31
76553;BME280;65395;53.168;18.156;2023-09-19T12:30:20;100398.27;;;23.36;48.32
76553;BME280;65395;53.168;18.156;2023-09-19T12:32:54;100398.24;;;23.45;47.16
76553;BME280;65395;53.168;18.156;2023-09-19T12:35:28;100404.91;;;23.40;46.67
76553;BME280;65395;53.168;18.156;2023-09-19T12:37:57;100406.38;;;23.30;46.77
76553;BME280;65395;53.168;18.156;2023-09-19T12:40:24;100408.30;;;23.20;47.19
76553;BME280;65395;53.168;18.156;2023-09-19T12:42:54;100407.88;;;23.14;47.98
76553;BME280;65395;53.168;18.156;2023-09-19T12:45:22;100411.80;;;23.03;48.00
76553;BME280;65395;53.168;18.156;2023-09-19T12:51:04;100407.09;;;22.89;49.06
76553;BME280;65395;53.168;18.156;2023-09-19T12:53:34;100411.77;;;22.99;49.30
76553;BME280;65395;53.168;18.156;2023-09-19T12:56:07;100412.77;;;22.87;49.23
76553;BME280;65395;53.168;18.156;2023-09-19T12:58:48;100413.03;;;22.74;49.60
76553;BME280;65395;53.168;18.156;2023-09-19T13:01:16;100423.21;;;22.78;49.11
76553;BME280;65395;53.168;18.156;2023-09-19T13:03:43;100410.58;;;22.84;49.63
76553;BME280;65395;53.168;18.156;2023-09-19T13:06:10;100417.64;;;23.04;48.91
76553;BME280;65395;53.168;18.156;2023-09-19T13:08:38;100419.36;;;23.19;48.55
76553;BME280;65395;53.168;18.156;2023-09-19T13:11:10;100418.23;;;23.24;47.08
76553;BME280;65395;53.168;18.156;2023-09-19T13:13:42;100411.64;;;23.24;45.19
76553;BME280;65395;53.168;18.156;2023-09-19T13:16:11;100423.39;;;23.26;44.72
76553;BME280;65395;53.168;18.156;2023-09-19T13:18:45;100417.55;;;23.25;45.30
76553;BME280;65395;53.168;18.156;2023-09-19T13:21:13;100419.73;;;23.29;45.60
76553;BME280;65395;53.168;18.156;2023-09-19T13:23:51;100418.52;;;23.43;44.98